Time;durP1;ratioP1;P1;durP2;ratioP2;P2;SDS_P1;SDS_P2;PMS_P1;PMS_P2;Temp;Humidity;BMP_temperature;BMP_pressure;BME280_temperature;BME280_humidity;BME280_pressure;Samples;Min_cycle;Max_cycle;Signal;HPM_P1;HPM_P2
2022/11/09 00:02:48;;;;;;;;;34.60;30.80;;;;;10.94;57.58;98885.94;6259514;27;96361;-63
2022/11/09 00:05:55;;;;;;;;;32.40;27.00;;;;;10.85;57.43;98882.69;6250597;27;96359;-63
2022/11/09 00:08:59;;;;;;;;;34.60;32.00;;;;;10.72;56.98;98880.97;6230443;28;96347;-65
2022/11/09 00:12:10;;;;;;;;;28.00;26.80;;;;;10.72;57.23;98891.75;6242262;28;96312;-65
2022/11/09 00:15:14;;;;;;;;;32.00;28.40;;;;;10.67;57.23;98879.97;6256907;27;96288;-64
2022/11/09 00:18:18;;;;;;;;;34.33;30.00;;;;;10.63;57.27;98887.69;6258429;27;96564;-64
2022/11/09 00:21:24;;;;;;;;;37.00;30.50;;;;;10.58;58.38;98879.44;6258565;27;96305;-64
2022/11/09 00:24:28;;;;;;;;;31.60;30.00;;;;;10.58;58.02;98887.53;6248341;27;96537;-64
2022/11/09 00:27:31;;;;;;;;;31.40;30.00;;;;;10.54;57.64;98880.94;6242315;27;98597;-65
2022/11/09 00:30:35;;;;;;;;;34.80;32.00;;;;;10.50;57.48;98870.84;6260447;27;96278;-66
2022/11/09 00:33:39;;;;;;;;;36.50;32.50;;;;;10.54;58.83;98882.81;6224275;28;96410;-65
2022/11/09 00:36:43;;;;;;;;;33.00;30.60;;;;;10.60;57.93;98877.38;6236762;27;96541;-64
2022/11/09 00:39:46;;;;;;;;;33.60;31.00;;;;;10.62;58.84;98879.81;6227104;28;96331;-65
2022/11/09 00:42:50;;;;;;;;;41.00;33.40;;;;;10.65;58.83;98876.69;6220129;28;96587;-65
2022/11/09 00:45:54;;;;;;;;;38.00;33.00;;;;;10.67;58.96;98882.69;6216133;28;96357;-64
2022/11/09 00:48:58;;;;;;;;;40.50;33.25;;;;;10.71;58.51;98889.28;6219872;28;96812;-66
2022/11/09 00:52:01;;;;;;;;;42.00;35.00;;;;;10.72;58.57;98888.22;6221841;28;96609;-65
2022/11/09 00:55:05;;;;;;;;;40.75;35.00;;;;;10.73;58.80;98885.31;6228696;28;96431;-64
2022/11/09 00:58:09;;;;;;;;;38.20;33.00;;;;;10.78;59.63;98885.47;6236559;28;97192;-64
2022/11/09 01:01:15;;;;;;;;;41.75;35.00;;;;;10.82;60.29;98883.16;6221828;28;98848;-64
2022/11/09 01:04:19;;;;;;;;;37.60;33.60;;;;;10.83;59.61;98887.50;6225373;28;96336;-65
2022/11/09 01:07:23;;;;;;;;;43.60;35.20;;;;;10.88;60.50;98889.53;6228360;28;96172;-64
2022/11/09 01:10:26;;;;;;;;;41.40;34.80;;;;;10.84;59.43;98883.78;6214289;28;97032;-64
2022/11/09 01:13:29;;;;;;;;;46.20;36.40;;;;;10.80;59.85;98888.75;6216059;28;96366;-64
2022/11/09 01:16:34;;;;;;;;;42.00;35.00;;;;;10.83;61.79;98879.41;6216988;28;96820;-64
2022/11/09 01:19:39;;;;;;;;;44.25;34.50;;;;;10.71;61.71;98862.31;6218683;28;96352;-64
2022/11/09 01:22:42;;;;;;;;;42.00;35.00;;;;;10.78;61.62;98869.31;6222004;28;96656;-64
2022/11/09 01:25:45;;;;;;;;;39.00;33.00;;;;;10.74;61.26;98870.81;6231675;28;96343;-64
2022/11/09 01:28:49;;;;;;;;;43.00;34.00;;;;;10.66;61.65;98854.06;6232028;28;97682;-64
2022/11/09 01:31:56;;;;;;;;;38.00;33.60;;;;;10.77;60.23;98877.59;6226302;27;96375;-64
2022/11/09 01:34:59;;;;;;;;;41.75;35.00;;;;;10.74;59.81;98869.97;6243913;27;96315;-65
2022/11/09 01:38:07;;;;;;;;;39.00;33.00;;;;;10.65;58.77;98869.41;6244220;27;96655;-64
2022/11/09 01:41:16;;;;;;;;;42.00;35.00;;;;;10.56;59.35;98865.34;6248764;27;96411;-63
2022/11/09 01:44:20;;;;;;;;;37.60;33.00;;;;;10.49;60.44;98855.69;6249589;27;96480;-64
2022/11/09 01:47:25;;;;;;;;;38.50;33.00;;;;;10.38;59.64;98868.84;6248150;27;96877;-64
2022/11/09 01:50:38;;;;;;;;;38.00;32.00;;;;;10.32;59.24;98850.88;6260160;27;96392;-65
2022/11/09 01:53:47;;;;;;;;;37.60;32.80;;;;;10.33;59.45;98852.53;6205092;27;97670;-63
2022/11/09 01:56:56;;;;;;;;;40.00;34.00;;;;;10.28;60.30;98840.75;6244375;27;96912;-64
2022/11/09 02:00:06;;;;;;;;;34.00;31.60;;;;;10.18;59.09;98838.56;6237236;27;96285;-65
2022/11/09 02:03:21;;;;;;;;;38.20;33.60;;;;;10.19;59.76;98840.22;6247251;27;96303;-64
2022/11/09 02:06:27;;;;;;;;;41.75;35.00;;;;;10.17;59.54;98844.97;6246899;27;96233;-64
2022/11/09 02:09:39;;;;;;;;;39.00;34.00;;;;;10.18;59.37;98843.13;6237406;28;96574;-64
2022/11/09 02:12:44;;;;;;;;;39.80;34.60;;;;;10.06;60.31;98818.75;6243198;27;97065;-64
2022/11/09 02:15:49;;;;;;;;;40.60;34.00;;;;;10.18;60.78;98849.34;6234967;28;96509;-64
2022/11/09 02:18:56;;;;;;;;;37.67;32.00;;;;;10.16;59.89;98840.66;6227292;27;96707;-63
2022/11/09 02:22:02;;;;;;;;;39.40;35.00;;;;;10.15;59.22;98844.38;6245295;27;96730;-64
2022/11/09 02:25:08;;;;;;;;;39.00;34.00;;;;;10.11;59.73;98848.53;6247772;27;96520;-64
2022/11/09 02:28:15;;;;;;;;;38.60;33.40;;;;;10.10;59.72;98844.19;6229034;27;96726;-64
2022/11/09 02:31:20;;;;;;;;;39.00;33.50;;;;;10.05;59.17;98844.03;6232545;27;97652;-63
2022/11/09 02:34:25;;;;;;;;;35.60;32.60;;;;;9.92;58.66;98850.31;6236305;27;96383;-63
2022/11/09 02:37:34;;;;;;;;;43.80;35.00;;;;;9.88;59.82;98837.50;6228332;27;96211;-65
2022/11/09 02:40:40;;;;;;;;;37.00;32.40;;;;;9.87;59.38;98843.97;6251083;27;96402;-63
2022/11/09 02:43:44;;;;;;;;;37.00;33.00;;;;;9.85;59.38;98837.97;6247818;27;97696;-63
2022/11/09 02:46:47;;;;;;;;;38.50;33.00;;;;;9.82;59.10;98844.59;6233436;27;97575;-62
2022/11/09 02:49:51;;;;;;;;;40.80;33.60;;;;;9.73;58.78;98842.38;6254173;27;96628;-63
2022/11/09 02:52:56;;;;;;;;;38.60;33.00;;;;;9.67;59.41;98836.03;6242775;27;96742;-63
2022/11/09 02:56:01;;;;;;;;;39.50;33.00;;;;;9.64;58.68;98830.22;6236824;27;96612;-65
2022/11/09 02:59:04;;;;;;;;;34.40;32.00;;;;;9.62;58.71;98833.16;6231745;27;96940;-65
2022/11/09 03:02:09;;;;;;;;;35.50;30.00;;;;;9.54;59.45;98831.53;6238618;27;96523;-63
2022/11/09 03:05:12;;;;;;;;;36.00;31.00;;;;;9.38;58.73;98799.75;6251088;27;96369;-62
2022/11/09 03:08:19;;;;;;;;;39.00;33.40;;;;;9.58;58.50;98842.69;6210795;27;96655;-63
2022/11/09 03:11:23;;;;;;;;;34.60;30.80;;;;;9.55;58.21;98833.19;6239552;27;96309;-62
2022/11/09 03:14:26;;;;;;;;;39.60;32.80;;;;;9.53;58.16;98840.63;6232710;27;96471;-62
2022/11/09 03:17:33;;;;;;;;;38.20;32.00;;;;;9.47;58.10;98840.69;6232818;27;96445;-62
2022/11/09 03:20:37;;;;;;;;;38.75;32.00;;;;;9.46;58.90;98833.66;6227307;27;96605;-63
2022/11/09 03:23:42;;;;;;;;;32.00;30.00;;;;;9.41;58.35;98834.31;6243633;27;96278;-64
2022/11/09 03:26:45;;;;;;;;;35.00;32.00;;;;;9.31;58.02;98839.31;6242145;27;96471;-63
2022/11/09 03:29:49;;;;;;;;;33.60;30.20;;;;;9.21;58.83;98836.28;6232076;27;97621;-63
2022/11/09 03:32:58;;;;;;;;;37.00;31.00;;;;;9.19;58.92;98841.03;6231391;27;96554;-62
2022/11/09 03:36:01;;;;;;;;;38.20;32.60;;;;;9.21;59.05;98838.13;6246320;27;96223;-64
2022/11/09 03:39:06;;;;;;;;;30.60;29.60;;;;;9.25;58.63;98837.47;6240402;27;96322;-63
2022/11/09 03:42:09;;;;;;;;;32.50;30.00;;;;;9.25;58.54;98833.97;6235910;27;96249;-63
2022/11/09 03:45:15;;;;;;;;;36.25;31.25;;;;;9.13;58.25;98815.00;6238592;27;96470;-63
2022/11/09 03:48:18;;;;;;;;;34.25;30.25;;;;;9.31;59.14;98822.34;6252317;27;96441;-63
2022/11/09 03:51:22;;;;;;;;;36.00;31.00;;;;;9.32;58.78;98819.47;6235112;27;98472;-63
2022/11/09 03:54:26;;;;;;;;;37.50;31.50;;;;;9.29;58.40;98813.66;6236853;27;97819;-63
2022/11/09 03:57:30;;;;;;;;;35.00;31.00;;;;;9.28;58.07;98814.72;6254922;27;96513;-65
2022/11/09 04:00:34;;;;;;;;;34.00;31.00;;;;;9.26;57.59;98823.00;6248414;27;96783;-65
2022/11/09 04:03:38;;;;;;;;;33.00;29.60;;;;;9.28;57.91;98830.88;6251626;27;96834;-63
2022/11/09 04:06:41;;;;;;;;;34.25;31.25;;;;;9.33;60.33;98829.19;6249907;27;96291;-65
2022/11/09 04:09:46;;;;;;;;;37.25;32.50;;;;;9.48;62.57;98831.59;6254391;27;96398;-63
2022/11/09 04:12:50;;;;;;;;;35.60;32.20;;;;;9.58;61.71;98823.84;6250655;27;96741;-62
2022/11/09 04:15:53;;;;;;;;;35.00;30.25;;;;;9.33;60.77;98788.00;6247925;27;97055;-64
2022/11/09 04:18:56;;;;;;;;;32.00;30.00;;;;;9.59;60.84;98828.19;6246919;27;96411;-64
2022/11/09 04:22:00;;;;;;;;;39.00;31.40;;;;;9.61;60.72;98825.28;6253612;27;96372;-64
2022/11/09 04:25:05;;;;;;;;;31.50;30.00;;;;;9.58;59.54;98821.97;6244462;27;96954;-63
2022/11/09 04:28:12;;;;;;;;;34.00;30.50;;;;;9.56;58.68;98825.94;6251297;27;96522;-63
2022/11/09 04:31:15;;;;;;;;;31.20;30.00;;;;;9.45;59.17;98822.06;6239313;27;96703;-63
2022/11/09 04:34:18;;;;;;;;;30.25;27.25;;;;;9.29;58.23;98827.94;6221663;28;96809;-64
2022/11/09 04:37:21;;;;;;;;;34.40;30.00;;;;;9.19;58.04;98821.41;6252769;27;96245;-64
2022/11/09 04:40:28;;;;;;;;;33.00;30.00;;;;;9.09;58.34;98819.13;6250086;27;96434;-63
2022/11/09 04:43:32;;;;;;;;;33.00;30.00;;;;;9.03;57.98;98831.59;6247955;27;96761;-63
2022/11/09 04:46:35;;;;;;;;;30.00;26.60;;;;;8.92;57.87;98824.19;6229670;27;96338;-64
2022/11/09 04:49:38;;;;;;;;;27.50;27.50;;;;;8.89;58.33;98815.72;6255832;27;96339;-63
2022/11/09 04:52:42;;;;;;;;;30.67;28.67;;;;;8.92;59.66;98815.28;6244173;27;96523;-63
2022/11/09 04:55:46;;;;;;;;;34.20;30.00;;;;;8.91;58.66;98821.69;6242470;27;96262;-63
2022/11/09 04:58:49;;;;;;;;;34.40;30.00;;;;;8.92;58.90;98818.81;6254073;27;96186;-62
2022/11/09 05:01:53;;;;;;;;;36.00;32.60;;;;;8.92;58.04;98826.03;6245894;27;98853;-66
2022/11/09 05:04:56;;;;;;;;;32.00;30.00;;;;;8.71;59.39;98770.69;6242143;27;96915;-64
2022/11/09 05:07:59;;;;;;;;;30.00;28.00;;;;;8.96;58.84;98817.34;6252752;27;96903;-65
2022/11/09 05:11:05;;;;;;;;;29.20;26.80;;;;;8.87;58.48;98813.25;6240703;27;96902;-63
2022/11/09 05:14:08;;;;;;;;;34.20;29.80;;;;;8.86;59.33;98816.13;6241749;27;96235;-63
2022/11/09 05:17:11;;;;;;;;;34.20;31.80;;;;;8.85;58.73;98814.47;6226795;27;98727;-62
2022/11/09 05:20:16;;;;;;;;;33.00;30.00;;;;;8.84;59.39;98813.69;6240731;27;96528;-63
2022/11/09 05:26:42;;;;;;;;;32.60;29.00;;;;;8.84;59.65;98815.53;6258700;27;97436;-63
2022/11/09 05:29:45;;;;;;;;;33.60;30.00;;;;;8.79;59.58;98816.19;6238528;27;97312;-64
2022/11/09 05:32:48;;;;;;;;;32.00;30.00;;;;;8.76;59.28;98827.34;6256967;27;96588;-63
2022/11/09 05:35:54;;;;;;;;;35.00;30.00;;;;;8.82;58.73;98820.28;6250918;27;96241;-63
2022/11/09 05:38:59;;;;;;;;;33.50;30.00;;;;;8.79;59.40;98823.41;6232625;27;96620;-63
2022/11/09 05:42:03;;;;;;;;;36.40;32.00;;;;;8.75;58.77;98825.69;6227707;27;96878;-64
2022/11/09 05:45:08;;;;;;;;;37.25;32.00;;;;;8.77;58.83;98820.94;6238277;27;96878;-67
2022/11/09 05:48:32;;;;;;;;;39.00;33.00;;;;;8.80;60.32;98820.50;6244142;27;97520;-64
2022/11/09 05:51:35;;;;;;;;;32.60;30.00;;;;;8.85;59.04;98826.06;6248084;27;97204;-65
2022/11/09 05:54:38;;;;;;;;;33.20;30.00;;;;;8.93;58.59;98820.47;6228945;27;96795;-64
2022/11/09 05:57:43;;;;;;;;;31.60;28.60;;;;;9.13;57.93;98820.38;6248242;27;97637;-66
2022/11/09 06:00:47;;;;;;;;;32.50;28.00;;;;;9.61;56.75;98819.91;6248792;27;97526;-65
2022/11/09 06:03:53;;;;;;;;;33.60;30.00;;;;;10.39;54.30;98838.16;6221065;27;99057;-66
2022/11/09 06:06:57;;;;;;;;;34.00;30.60;;;;;11.38;51.53;98830.81;6215373;27;96684;-66
2022/11/09 06:10:00;;;;;;;;;30.60;28.60;;;;;12.43;49.15;98827.34;6230630;27;98505;-66
2022/11/09 06:13:05;;;;;;;;;33.00;29.60;;;;;13.20;46.32;98813.59;6245210;27;96521;-64
2022/11/09 06:16:10;;;;;;;;;33.00;30.00;;;;;14.08;44.60;98835.56;6225848;27;96936;-64
2022/11/09 06:19:13;;;;;;;;;34.60;31.00;;;;;15.05;42.21;98840.59;6244305;27;96624;-66
2022/11/09 06:22:17;;;;;;;;;32.50;30.00;;;;;16.13;39.89;98841.50;6247674;27;96857;-64
2022/11/09 06:25:20;;;;;;;;;35.00;30.60;;;;;17.06;37.66;98842.75;6244535;27;96503;-65
2022/11/09 06:28:27;;;;;;;;;32.00;29.50;;;;;18.16;36.58;98845.03;6241644;27;96539;-66
2022/11/09 06:31:31;;;;;;;;;33.00;30.00;;;;;18.96;34.12;98846.06;6250153;27;98427;-66
2022/11/09 06:34:35;;;;;;;;;35.00;32.00;;;;;19.71;32.50;98851.53;6231490;27;97073;-66
2022/11/09 06:37:38;;;;;;;;;31.20;30.00;;;;;20.36;31.77;98844.03;6246928;27;96295;-66
2022/11/09 06:40:42;;;;;;;;;32.00;27.75;;;;;20.91;31.05;98848.19;6239043;27;96414;-67
2022/11/09 06:43:46;;;;;;;;;32.00;29.60;;;;;21.20;30.94;98846.25;6237729;27;96894;-67
2022/11/09 06:46:50;;;;;;;;;35.60;30.60;;;;;21.44;30.93;98854.47;6248086;27;96550;-64
2022/11/09 06:49:53;;;;;;;;;34.00;30.00;;;;;21.40;30.39;98851.50;6252984;27;96380;-65
2022/11/09 06:52:58;;;;;;;;;33.40;30.00;;;;;21.30;30.83;98851.63;6251669;27;97337;-66
2022/11/09 06:56:03;;;;;;;;;34.50;30.00;;;;;21.40;30.84;98843.25;6255396;27;97005;-67
2022/11/09 06:59:08;;;;;;;;;29.20;27.20;;;;;22.21;30.02;98842.13;6233606;27;96379;-63
2022/11/09 07:02:15;;;;;;;;;30.00;28.40;;;;;23.10;28.44;98845.56;6249972;27;96570;-64
2022/11/09 07:05:20;;;;;;;;;31.00;28.00;;;;;23.88;27.58;98847.25;6250553;27;96309;-65
2022/11/09 07:08:23;;;;;;;;;35.50;30.00;;;;;24.26;26.78;98850.53;6258230;27;96437;-64
2022/11/09 07:11:26;;;;;;;;;32.67;28.67;;;;;24.62;26.33;98849.66;6255526;27;96493;-66
2022/11/09 07:14:31;;;;;;;;;31.60;29.60;;;;;24.77;26.03;98847.34;6229410;27;98686;-66
2022/11/09 07:17:35;;;;;;;;;32.40;29.60;;;;;24.89;25.80;98853.09;6233943;27;96720;-66
2022/11/09 07:20:39;;;;;;;;;31.20;29.20;;;;;25.03;25.23;98848.31;6253987;27;96264;-67
2022/11/09 07:23:43;;;;;;;;;34.80;31.80;;;;;25.68;24.56;98849.53;6251539;27;96588;-66
2022/11/09 07:26:48;;;;;;;;;36.60;32.40;;;;;26.45;24.12;98846.03;6241308;27;97866;-66
2022/11/09 07:29:55;;;;;;;;;41.50;35.50;;;;;27.05;23.09;98845.94;6241172;27;96371;-68
2022/11/09 07:32:59;;;;;;;;;42.00;36.00;;;;;27.80;22.47;98820.19;6252982;27;96666;-67
2022/11/09 07:36:12;;;;;;;;;40.00;33.50;;;;;28.62;21.27;98843.47;6259039;27;96995;-66
2022/11/09 07:39:23;;;;;;;;;42.40;35.00;;;;;28.87;20.99;98843.59;6249683;27;96515;-67
2022/11/09 07:42:28;;;;;;;;;38.80;33.20;;;;;29.41;20.54;98844.28;6250172;27;96979;-67
2022/11/09 07:45:34;;;;;;;;;44.40;35.00;;;;;30.55;19.49;98841.88;6224273;28;97294;-65
2022/11/09 07:48:37;;;;;;;;;38.20;33.00;;;;;31.50;18.81;98842.81;6244684;27;96352;-67
2022/11/09 07:51:41;;;;;;;;;36.50;33.00;;;;;31.73;18.39;98837.41;6222788;27;98936;-67
2022/11/09 07:54:44;;;;;;;;;39.60;34.60;;;;;32.18;18.48;98843.25;6245637;27;96600;-66
2022/11/09 07:57:58;;;;;;;;;38.80;33.00;;;;;33.13;17.72;98842.75;6241116;27;96856;-66
2022/11/09 08:01:07;;;;;;;;;40.00;33.00;;;;;33.62;17.21;98826.84;6246255;27;96851;-68
2022/11/09 08:04:11;;;;;;;;;38.50;34.00;;;;;33.68;16.78;98824.53;6249847;27;96411;-65
2022/11/09 08:07:14;;;;;;;;;40.00;33.40;;;;;34.39;16.74;98826.34;6247883;27;96945;-70
2022/11/09 08:10:18;;;;;;;;;34.75;31.75;;;;;34.80;16.26;98804.81;6236524;27;96712;-71
2022/11/09 08:13:21;;;;;;;;;38.00;32.40;;;;;35.57;16.69;98801.94;6236535;27;96327;-70
2022/11/09 08:16:26;;;;;;;;;37.60;32.00;;;;;35.97;15.35;98808.63;6210268;28;96912;-71
2022/11/09 08:19:34;;;;;;;;;33.75;32.00;;;;;36.71;14.87;98820.19;6236502;27;96462;-71
2022/11/09 08:22:41;;;;;;;;;30.00;29.00;;;;;37.01;14.72;98817.06;6237861;27;96991;-71
2022/11/09 08:25:45;;;;;;;;;34.00;30.00;;;;;37.27;15.29;98815.91;6239859;27;96434;-71
2022/11/09 08:28:49;;;;;;;;;35.80;31.40;;;;;37.55;14.63;98817.94;6239777;27;97279;-72
2022/11/09 08:31:54;;;;;;;;;33.20;30.80;;;;;37.74;14.70;98814.69;6246474;27;96567;-72
2022/11/09 08:34:57;;;;;;;;;34.00;31.00;;;;;37.97;14.40;98806.63;6243041;27;96866;-72
2022/11/09 08:38:03;;;;;;;;;37.40;32.40;;;;;38.26;13.85;98807.34;6250642;27;96298;-73
2022/11/09 08:41:07;;;;;;;;;34.00;31.00;;;;;38.86;13.88;98798.56;6260621;27;96316;-72
2022/11/09 08:44:15;;;;;;;;;37.33;31.00;;;;;39.18;13.35;98801.22;6265332;27;96403;-73
2022/11/09 08:47:20;;;;;;;;;28.00;27.00;;;;;39.21;13.15;98789.09;6263798;27;96439;-73
2022/11/09 08:50:23;;;;;;;;;30.40;28.60;;;;;38.86;13.00;98800.59;6259244;27;96407;-73
2022/11/09 08:53:29;;;;;;;;;35.75;31.00;;;;;37.50;14.62;98793.78;6265168;27;96426;-72
2022/11/09 08:56:33;;;;;;;;;32.60;30.00;;;;;36.61;15.84;98798.50;6264486;27;96392;-72
2022/11/09 08:59:36;;;;;;;;;36.80;32.20;;;;;36.41;16.17;98788.78;6222873;28;96643;-71
2022/11/09 09:02:41;;;;;;;;;38.00;32.40;;;;;36.35;16.11;98791.19;6226898;27;96308;-71
2022/11/09 09:05:44;;;;;;;;;37.00;33.40;;;;;36.26;16.31;98792.75;6264683;27;96534;-72
2022/11/09 09:08:48;;;;;;;;;40.50;33.00;;;;;35.47;16.62;98782.25;6246518;27;96305;-71
2022/11/09 09:11:51;;;;;;;;;42.60;35.00;;;;;34.78;17.01;98790.41;6232533;28;96752;-72
2022/11/09 09:14:55;;;;;;;;;41.00;34.20;;;;;34.61;16.88;98786.19;6262372;27;97658;-71
2022/11/09 09:18:01;;;;;;;;;41.40;35.00;;;;;34.60;17.31;98781.00;6263082;27;96384;-71
2022/11/09 09:21:06;;;;;;;;;35.60;32.00;;;;;34.49;17.14;98782.88;6263562;27;96515;-73
2022/11/09 09:24:10;;;;;;;;;35.40;32.00;;;;;35.15;17.00;98781.94;6264287;27;96265;-72
2022/11/09 09:27:13;;;;;;;;;36.00;32.00;;;;;35.61;16.64;98774.72;6264100;27;96541;-72
2022/11/09 09:30:17;;;;;;;;;36.80;32.00;;;;;35.61;16.29;98771.91;6263317;27;97148;-73
2022/11/09 09:33:22;;;;;;;;;32.00;30.00;;;;;35.79;15.83;98780.47;6263356;27;96257;-74
2022/11/09 09:36:25;;;;;;;;;34.00;31.00;;;;;36.09;16.19;98776.59;6245250;27;96538;-73
2022/11/09 09:39:29;;;;;;;;;39.40;33.00;;;;;36.55;16.62;98788.03;6239085;27;96650;-74
2022/11/09 09:42:35;;;;;;;;;36.00;32.00;;;;;37.12;15.58;98774.94;6238792;27;96258;-73
2022/11/09 09:45:52;;;;;;;;;36.60;32.00;;;;;37.26;15.32;98770.13;6219721;28;96621;-74
2022/11/09 09:49:01;;;;;;;;;43.00;35.00;;;;;36.84;15.39;98770.06;6246244;27;96529;-74
2022/11/09 09:52:16;;;;;;;;;38.25;33.50;;;;;36.26;16.13;98773.91;6263297;27;96414;-73
2022/11/09 09:55:26;;;;;;;;;43.20;35.20;;;;;35.51;16.66;98760.63;6230091;28;97289;-71
2022/11/09 09:58:33;;;;;;;;;36.00;32.00;;;;;34.92;16.91;98747.72;6243532;27;96462;-72
2022/11/09 10:01:38;;;;;;;;;38.60;33.00;;;;;34.08;18.33;98757.56;6238732;27;97063;-73
2022/11/09 10:04:42;;;;;;;;;39.50;34.75;;;;;33.10;18.86;98746.50;6238463;27;96322;-74
2022/11/09 10:07:55;;;;;;;;;37.25;33.00;;;;;32.03;20.13;98752.03;6219655;28;96817;-73
2022/11/09 10:11:12;;;;;;;;;42.00;34.75;;;;;31.05;20.97;98756.13;6224925;27;96909;-74
2022/11/09 10:14:37;;;;;;;;;40.20;33.00;;;;;30.06;22.25;98752.22;6250373;27;96264;-74
2022/11/09 10:17:51;;;;;;;;;37.75;33.00;;;;;29.19;23.28;98751.91;6242842;27;97232;-73
2022/11/09 10:21:11;;;;;;;;;40.60;32.80;;;;;28.47;23.82;98755.38;6231457;27;96833;-72
2022/11/09 10:24:29;;;;;;;;;39.40;33.00;;;;;27.55;24.44;98736.13;6241638;27;96468;-71
2022/11/09 10:27:35;;;;;;;;;39.40;32.00;;;;;27.15;25.26;98754.25;6210573;27;96849;-75
2022/11/09 10:30:39;;;;;;;;;38.60;32.60;;;;;26.59;26.63;98742.41;6231333;28;96515;-73
2022/11/09 10:33:45;;;;;;;;;40.40;35.00;;;;;26.16;26.27;98744.41;6223584;28;98394;-72
2022/11/09 10:36:59;;;;;;;;;36.40;31.20;;;;;25.69;27.21;98743.47;6222133;28;96584;-74
2022/11/09 10:40:15;;;;;;;;;38.40;32.00;;;;;25.23;27.76;98747.59;6215080;28;96561;-74
2022/11/09 10:43:37;;;;;;;;;36.60;32.00;;;;;24.89;27.96;98751.06;6237059;28;97128;-72
2022/11/09 10:47:05;;;;;;;;;36.00;32.40;;;;;24.57;29.38;98751.38;6229986;28;97238;-73
2022/11/09 10:50:33;;;;;;;;;43.00;34.60;;;;;24.38;29.66;98748.03;6212213;28;97217;-73
2022/11/09 10:54:14;;;;;;;;;38.60;33.00;;;;;24.42;29.30;98743.50;6227878;28;96156;-73
2022/11/09 10:57:50;;;;;;;;;41.40;34.00;;;;;24.53;29.63;98747.63;6237255;28;97794;-74
2022/11/09 11:01:14;;;;;;;;;41.40;33.00;;;;;24.70;30.47;98741.38;6215806;28;96469;-74
2022/11/09 11:04:36;;;;;;;;;36.00;30.00;;;;;24.79;28.92;98743.03;6213235;28;97146;-72
2022/11/09 11:08:03;;;;;;;;;29.40;27.40;;;;;24.60;28.52;98748.78;6219131;28;96529;-75
2022/11/09 11:11:28;;;;;;;;;31.67;28.67;;;;;24.54;28.54;98741.78;6212387;28;96439;-75
2022/11/09 11:14:57;;;;;;;;;33.40;27.60;;;;;24.81;28.45;98740.78;6230547;28;97228;-74
2022/11/09 11:18:23;;;;;;;;;32.80;29.00;;;;;25.54;27.93;98739.22;6222614;27;96608;-73
2022/11/09 11:21:45;;;;;;;;;31.50;29.50;;;;;26.49;26.91;98742.75;6212898;28;96660;-73
2022/11/09 11:25:19;;;;;;;;;33.40;29.20;;;;;27.32;25.17;98743.06;6218522;28;97219;-74
2022/11/09 11:28:46;;;;;;;;;35.00;30.50;;;;;27.96;24.28;98740.00;6221742;28;96694;-74
2022/11/09 11:32:11;;;;;;;;;34.80;27.40;;;;;28.95;23.53;98743.56;6220143;27;96672;-74
2022/11/09 11:35:39;;;;;;;;;31.00;29.60;;;;;29.78;22.62;98734.69;6241973;27;97034;-75
2022/11/09 11:39:14;;;;;;;;;32.00;30.00;;;;;30.64;21.28;98736.00;6243819;27;96958;-73
2022/11/09 11:43:00;;;;;;;;;32.80;28.80;;;;;31.11;21.78;98741.59;6218790;27;96652;-74
2022/11/09 11:46:37;;;;;;;;;32.00;28.40;;;;;31.20;21.29;98744.97;6246158;27;96240;-74
2022/11/09 11:50:30;;;;;;;;;30.20;27.40;;;;;31.34;21.28;98736.97;6244261;27;96630;-74
2022/11/09 11:54:06;;;;;;;;;30.50;27.75;;;;;31.93;20.84;98740.66;6245673;27;96247;-74
2022/11/09 11:57:41;;;;;;;;;32.00;27.00;;;;;32.45;19.93;98740.94;6247918;27;96401;-74
2022/11/09 12:01:12;;;;;;;;;33.00;29.00;;;;;32.51;19.43;98742.25;6244848;27;96549;-74
2022/11/09 12:04:59;;;;;;;;;27.75;27.25;;;;;32.39;20.22;98745.22;6240218;27;96887;-74
2022/11/09 12:08:30;;;;;;;;;33.40;30.00;;;;;32.12;20.18;98743.47;6233247;27;96958;-74
2022/11/09 12:12:11;;;;;;;;;27.50;25.00;;;;;31.76;20.98;98739.13;6248414;27;96358;-73
2022/11/09 12:15:48;;;;;;;;;29.20;26.60;;;;;31.56;20.54;98734.66;6250110;27;96242;-74
2022/11/09 12:19:28;;;;;;;;;27.60;26.00;;;;;31.40;20.66;98729.94;6250352;27;96978;-73
2022/11/09 12:23:13;;;;;;;;;28.50;24.25;;;;;31.05;20.92;98717.97;6252395;27;96953;-74
2022/11/09 12:26:49;;;;;;;;;25.00;23.00;;;;;30.54;21.49;98720.59;6252488;27;96964;-73
2022/11/09 12:30:44;;;;;;;;;26.00;25.00;;;;;29.96;21.76;98724.13;6253379;27;96932;-74
2022/11/09 12:34:17;;;;;;;;;22.40;21.00;;;;;29.26;22.68;98726.34;6252036;27;96541;-75
2022/11/09 12:37:47;;;;;;;;;27.75;24.00;;;;;28.70;23.38;98722.47;6234639;27;96855;-72
2022/11/09 12:41:16;;;;;;;;;23.00;20.50;;;;;28.16;23.66;98708.72;6247001;27;96801;-73
2022/11/09 12:44:45;;;;;;;;;23.40;21.80;;;;;28.05;24.34;98723.31;6261333;27;97012;-73
2022/11/09 12:48:19;;;;;;;;;22.40;20.00;;;;;27.98;24.48;98723.88;6250258;27;96482;-74
2022/11/09 12:51:42;;;;;;;;;21.60;18.80;;;;;27.97;24.45;98720.28;6254066;27;97704;-72
2022/11/09 12:55:05;;;;;;;;;23.40;20.40;;;;;27.86;24.33;98721.03;6254698;27;97507;-73
2022/11/09 12:58:32;;;;;;;;;24.40;22.00;;;;;27.66;24.00;98719.09;6238562;27;96673;-73
2022/11/09 13:01:56;;;;;;;;;21.50;20.00;;;;;27.56;24.65;98732.19;6245972;27;96245;-73
2022/11/09 13:05:31;;;;;;;;;24.80;21.40;;;;;27.40;24.75;98733.91;6224402;27;97310;-74
2022/11/09 13:09:00;;;;;;;;;22.00;19.00;;;;;27.34;24.38;98735.25;6261003;27;96406;-74
2022/11/09 13:12:43;;;;;;;;;21.60;20.00;;;;;27.19;24.87;98737.78;6240941;27;96687;-74
2022/11/09 13:16:35;;;;;;;;;22.00;20.00;;;;;26.98;24.85;98741.28;6245972;27;96244;-72
2022/11/09 13:19:57;;;;;;;;;25.50;23.00;;;;;26.73;25.52;98739.44;6250001;27;96806;-73
2022/11/09 13:23:39;;;;;;;;;22.00;20.00;;;;;26.51;25.96;98740.47;6241824;27;96238;-74
2022/11/09 13:27:36;;;;;;;;;23.00;20.25;;;;;26.41;26.37;98735.31;6247053;27;96348;-74
2022/11/09 13:30:59;;;;;;;;;21.60;18.40;;;;;26.25;25.97;98737.78;6247680;27;96493;-74
2022/11/09 13:34:44;;;;;;;;;18.00;17.00;;;;;25.97;26.27;98747.53;6249803;27;96444;-74
2022/11/09 13:38:15;;;;;;;;;17.00;16.00;;;;;25.76;26.38;98744.59;6247441;27;96901;-74
2022/11/09 13:41:42;;;;;;;;;18.25;16.25;;;;;25.48;26.85;98734.16;6252964;27;96266;-73
2022/11/09 13:45:27;;;;;;;;;16.50;15.50;;;;;25.29;26.87;98737.22;6251654;27;96736;-75
2022/11/09 13:48:52;;;;;;;;;18.60;17.60;;;;;25.13;27.76;98730.53;6239041;27;97068;-75
2022/11/09 13:52:48;;;;;;;;;19.00;17.00;;;;;24.88;28.34;98729.31;6252083;27;96237;-74
2022/11/09 13:56:18;;;;;;;;;18.00;15.00;;;;;24.63;29.35;98733.56;6243064;27;96453;-73
2022/11/09 13:59:49;;;;;;;;;16.00;14.80;;;;;24.40;29.56;98726.47;6254997;27;96252;-75
2022/11/09 14:03:21;;;;;;;;;15.67;14.67;;;;;24.13;29.81;98727.44;6238898;27;96454;-73
2022/11/09 14:06:43;;;;;;;;;18.20;15.20;;;;;23.79;30.14;98728.00;6245963;27;96469;-73
2022/11/09 14:10:20;;;;;;;;;18.00;15.00;;;;;23.47;30.79;98723.50;6236851;27;96454;-73
2022/11/09 14:14:04;;;;;;;;;17.00;15.00;;;;;23.16;29.97;98728.84;6230661;27;98726;-74
2022/11/09 14:17:36;;;;;;;;;18.00;17.00;;;;;22.88;30.90;98724.47;6251242;27;96728;-74
2022/11/09 14:21:11;;;;;;;;;17.00;15.80;;;;;22.51;32.21;98721.88;6255127;27;96855;-74
2022/11/09 14:24:37;;;;;;;;;21.00;19.40;;;;;22.06;32.71;98727.06;6257829;27;96284;-72
2022/11/09 14:28:00;;;;;;;;;23.40;19.40;;;;;21.73;33.21;98722.66;6246162;27;97247;-73
2022/11/09 14:31:24;;;;;;;;;19.00;18.00;;;;;21.43;33.86;98730.22;6250081;27;96434;-72
2022/11/09 14:34:45;;;;;;;;;22.00;19.00;;;;;21.05;35.20;98726.59;6254309;27;96827;-75
2022/11/09 14:38:17;;;;;;;;;21.75;19.75;;;;;20.77;35.36;98728.28;6246184;27;96998;-74
2022/11/09 14:41:44;;;;;;;;;21.25;18.25;;;;;20.55;36.18;98735.41;6244674;27;96609;-73
2022/11/09 14:45:15;;;;;;;;;22.25;21.25;;;;;20.34;36.17;98729.31;6240264;27;96526;-71
2022/11/09 14:48:37;;;;;;;;;22.80;20.40;;;;;20.09;36.82;98713.09;6244113;27;96515;-74
2022/11/09 14:52:05;;;;;;;;;22.00;21.00;;;;;19.86;37.93;98717.41;6245749;27;96496;-72